createdAt,value
2022-09-26T00:00:55.155Z,95.07
2022-09-26T00:06:18.006Z,95.01
2022-09-26T00:11:40.521Z,94.34
2022-09-26T00:17:02.270Z,93.37
2022-09-26T00:22:23.991Z,93.76
2022-09-26T00:27:45.720Z,93.56
2022-09-26T00:33:07.665Z,93.44
2022-09-26T00:38:29.494Z,93.07
2022-09-26T00:43:54.129Z,93.86
2022-09-26T00:49:25.279Z,94.16
2022-09-26T00:54:51.610Z,95.09
2022-09-26T01:00:14.984Z,95.11
2022-09-26T01:05:37.799Z,95.22
2022-09-26T01:11:00.454Z,96.69
2022-09-26T01:16:22.216Z,96.37
2022-09-26T01:22:13.012Z,94.69
2022-09-26T01:28:12.171Z,94.46
2022-09-26T01:33:46.914Z,94.20
2022-09-26T01:39:18.119Z,94.85
2022-09-26T01:44:52.921Z,94.41
2022-09-26T01:50:34.756Z,93.69
2022-09-26T01:56:03.125Z,93.62
2022-09-26T02:01:29.442Z,94.72
2022-09-26T02:06:57.252Z,94.21
2022-09-26T02:12:27.685Z,95.54
2022-09-26T02:17:55.284Z,95.28
2022-09-26T02:23:17.231Z,94.24
2022-09-26T02:28:38.941Z,93.40
2022-09-26T02:34:01.752Z,93.53
2022-09-26T02:39:24.660Z,92.39
2022-09-26T02:45:14.546Z,93.12
2022-09-26T02:51:01.827Z,92.63
2022-09-26T02:56:47.656Z,93.01
2022-09-26T03:02:17.224Z,92.71
2022-09-26T03:07:47.103Z,92.47
2022-09-26T03:13:13.235Z,92.46
2022-09-26T03:19:04.363Z,91.51
2022-09-26T03:24:26.810Z,91.06
2022-09-26T03:29:48.569Z,91.53
2022-09-26T03:35:10.567Z,90.52
2022-09-26T03:40:32.297Z,90.51
2022-09-26T03:45:54.895Z,90.06
2022-09-26T03:51:17.170Z,90.16
2022-09-26T03:56:39.019Z,89.04
2022-09-26T04:02:00.728Z,89.99
2022-09-26T04:07:22.558Z,91.53
2022-09-26T04:12:44.549Z,91.70
2022-09-26T04:18:06.226Z,91.63
2022-09-26T04:23:28.836Z,91.63
2022-09-26T04:28:52.169Z,90.92
2022-09-26T04:34:14.862Z,90.57
2022-09-26T04:39:36.915Z,88.83
2022-09-26T04:44:58.558Z,87.31
2022-09-26T04:50:20.304Z,88.35
2022-09-26T04:55:46.584Z,88.20
2022-09-26T05:01:11.680Z,88.00
2022-09-26T05:06:33.595Z,88.58
2022-09-26T05:11:55.279Z,88.64
2022-09-26T05:17:16.957Z,88.28
2022-09-26T05:22:38.629Z,88.36
2022-09-26T05:28:01.078Z,89.84
2022-09-26T05:33:22.776Z,89.69
2022-09-26T05:38:45.276Z,89.38
2022-09-26T05:44:06.943Z,90.05
2022-09-26T05:49:28.600Z,91.06
2022-09-26T05:54:50.273Z,91.66
2022-09-26T06:00:12.505Z,90.56
2022-09-26T06:05:34.623Z,88.65
2022-09-26T06:11:01.008Z,88.00
2022-09-26T06:16:23.093Z,87.15
2022-09-26T06:21:44.870Z,86.12
2022-09-26T06:27:06.634Z,86.73
2022-09-26T06:32:29.190Z,86.96
2022-09-26T06:37:51.628Z,86.66
2022-09-26T06:43:13.315Z,85.71
2022-09-26T06:48:35.934Z,82.45
2022-09-26T06:53:57.720Z,82.11
2022-09-26T06:59:19.453Z,82.31
2022-09-26T07:04:41.149Z,81.60
2022-09-26T07:10:02.910Z,80.52
2022-09-26T07:15:27.423Z,80.46
2022-09-26T07:20:51.221Z,81.05
2022-09-26T07:26:16.205Z,79.88
2022-09-26T07:31:38.407Z,80.45
2022-09-26T07:37:00.229Z,79.32
2022-09-26T07:42:22.051Z,80.34
2022-09-26T07:48:02.174Z,77.87
2022-09-26T07:53:26.508Z,77.85
2022-09-26T07:58:48.351Z,77.24
2022-09-26T08:04:11.865Z,76.71
2022-09-26T08:09:34.036Z,75.74
2022-09-26T08:14:55.960Z,76.10
2022-09-26T08:20:17.753Z,76.35
2022-09-26T08:25:39.756Z,76.58
2022-09-26T08:31:02.893Z,76.34
2022-09-26T08:36:24.713Z,74.73
2022-09-26T08:42:01.295Z,75.90
2022-09-26T08:47:49.282Z,75.18
2022-09-26T08:53:16.407Z,76.28
2022-09-26T08:58:42.816Z,76.35
2022-09-26T09:04:16.359Z,75.84
2022-09-26T09:09:38.711Z,73.60
2022-09-26T09:15:25.162Z,75.96
2022-09-26T09:21:13.953Z,76.00
2022-09-26T09:32:45.271Z,72.12
2022-09-26T09:38:12.468Z,71.64
2022-09-26T09:43:45.894Z,70.53
2022-09-26T09:49:10.374Z,69.06
2022-09-26T09:54:46.760Z,66.70
2022-09-26T10:00:15.601Z,65.86
2022-09-26T10:05:46.546Z,65.45
2022-09-26T10:11:14.310Z,66.11
2022-09-26T10:16:36.046Z,65.32
2022-09-26T10:21:58.457Z,63.98
2022-09-26T10:27:36.913Z,65.39
2022-09-26T10:33:00.978Z,65.13
2022-09-26T10:38:27.193Z,61.00
2022-09-26T10:43:54.638Z,62.06
2022-09-26T10:49:18.838Z,60.75
2022-09-26T10:55:03.718Z,58.84
2022-09-26T11:00:37.538Z,59.65
2022-09-26T11:05:59.960Z,57.62
2022-09-26T11:11:22.480Z,58.76
2022-09-26T11:16:44.074Z,59.28
2022-09-26T11:22:19.997Z,59.47
2022-09-26T11:28:08.207Z,62.48
2022-09-26T11:33:30.206Z,64.99
2022-09-26T11:39:18.125Z,60.61
2022-09-26T11:44:42.506Z,61.88
2022-09-26T11:50:25.578Z,58.32
2022-09-26T11:56:06.081Z,56.53
2022-09-26T12:01:42.736Z,56.00
2022-09-26T12:07:19.483Z,56.52
2022-09-26T12:12:49.566Z,58.58
2022-09-26T12:18:26.242Z,63.86
2022-09-26T12:23:57.154Z,66.58
2022-09-26T12:29:44.756Z,67.47
2022-09-26T12:35:21.085Z,67.43
2022-09-26T12:40:42.873Z,66.86
2022-09-26T12:46:19.069Z,65.27
2022-09-26T12:51:51.943Z,63.08
2022-09-26T12:57:38.494Z,60.29
2022-09-26T13:03:09.660Z,58.59
2022-09-26T13:09:00.753Z,58.76
2022-09-26T13:14:46.630Z,57.10
2022-09-26T13:20:24.135Z,56.99
2022-09-26T13:26:18.047Z,55.84
2022-09-26T13:31:45.564Z,56.15
2022-09-26T13:37:31.783Z,53.04
2022-09-26T13:43:20.341Z,53.26
2022-09-26T13:49:01.017Z,54.06
2022-09-26T13:54:48.502Z,53.83
2022-09-26T14:00:38.913Z,53.89
2022-09-26T14:06:15.563Z,53.84
2022-09-26T14:11:45.048Z,54.93
2022-09-26T14:17:38.522Z,56.02
2022-09-26T14:23:01.694Z,55.99
2022-09-26T14:28:35.362Z,56.17
2022-09-26T14:34:23.399Z,56.12
2022-09-26T14:39:46.279Z,56.38
2022-09-26T14:45:21.168Z,57.18
2022-09-26T14:50:56.199Z,56.73
2022-09-26T14:56:38.340Z,56.57
2022-09-26T15:02:40.366Z,56.38
2022-09-26T15:08:02.429Z,58.29
2022-09-26T15:13:31.685Z,58.90
2022-09-26T15:19:02.935Z,58.74
2022-09-26T15:24:27.175Z,57.51
2022-09-26T15:29:51.675Z,58.60
2022-09-26T15:35:14.098Z,56.52
2022-09-26T15:40:35.993Z,56.28
2022-09-26T15:45:59.390Z,56.03
2022-09-26T15:51:26.547Z,55.68
2022-09-26T15:56:49.513Z,56.20
2022-09-26T16:02:23.391Z,56.75
2022-09-26T16:07:48.952Z,57.31
2022-09-26T16:13:25.167Z,58.40
2022-09-26T16:19:01.399Z,59.01
2022-09-26T16:24:34.222Z,59.37
2022-09-26T16:30:02.484Z,59.88
2022-09-26T16:35:29.470Z,58.83
2022-09-26T16:40:54.066Z,59.65
2022-09-26T16:46:18.055Z,59.46
2022-09-26T16:51:40.847Z,58.63
2022-09-26T16:57:05.017Z,59.22
2022-09-26T17:02:26.715Z,60.03
2022-09-26T17:07:49.627Z,59.48
2022-09-26T17:13:21.610Z,59.38
2022-09-26T17:18:44.688Z,59.64
2022-09-26T17:24:13.735Z,60.12
2022-09-26T17:29:39.589Z,61.04
2022-09-26T17:35:08.630Z,62.69
2022-09-26T17:40:32.454Z,62.18
2022-09-26T17:45:54.907Z,61.76
2022-09-26T17:51:16.607Z,61.26
2022-09-26T17:56:38.283Z,61.65
2022-09-26T18:02:03.630Z,61.56
2022-09-26T18:07:34.100Z,61.67
2022-09-26T18:13:01.065Z,62.61
2022-09-26T18:18:24.347Z,63.02
2022-09-26T18:23:51.636Z,62.96
2022-09-26T18:29:17.553Z,62.62
2022-09-26T18:34:39.243Z,62.77
2022-09-26T18:40:04.146Z,61.35
2022-09-26T18:45:35.765Z,62.04
2022-09-26T18:50:57.731Z,62.58
2022-09-26T18:56:38.339Z,63.26
2022-09-26T19:02:01.849Z,63.58
2022-09-26T19:07:24.438Z,63.54
2022-09-26T19:12:46.744Z,61.24
2022-09-26T19:18:09.808Z,60.95
2022-09-26T19:23:35.204Z,62.32
2022-09-26T19:28:59.178Z,63.20
2022-09-26T19:34:21.836Z,62.69
2022-09-26T19:39:43.626Z,62.67
2022-09-26T19:45:05.866Z,63.27
2022-09-26T19:50:28.505Z,63.36
2022-09-26T19:55:50.627Z,64.73
2022-09-26T20:01:18.064Z,64.71
2022-09-26T20:06:39.902Z,64.80
2022-09-26T20:12:01.896Z,63.77
2022-09-26T20:17:26.814Z,62.89
2022-09-26T20:22:50.951Z,62.16
2022-09-26T20:28:14.868Z,61.40
2022-09-26T20:33:37.236Z,60.77
2022-09-26T20:39:03.067Z,63.64
2022-09-26T20:44:33.497Z,65.70
2022-09-26T20:49:58.706Z,68.34
2022-09-26T20:55:20.503Z,73.86
2022-09-26T21:00:43.961Z,74.60
2022-09-26T21:06:12.767Z,73.01
2022-09-26T21:11:34.478Z,70.69
2022-09-26T21:16:56.396Z,68.89
2022-09-26T21:22:20.663Z,68.84
2022-09-26T21:27:42.326Z,66.10
2022-09-26T21:33:04.002Z,66.64
2022-09-26T21:38:26.332Z,66.10
2022-09-26T21:43:53.954Z,67.09
2022-09-26T21:49:15.666Z,68.91
2022-09-26T21:54:42.189Z,72.65
2022-09-26T22:00:08.601Z,72.54
2022-09-26T22:05:31.276Z,74.42
2022-09-26T22:10:53.843Z,78.84
2022-09-26T22:16:15.838Z,78.56
2022-09-26T22:21:37.677Z,77.71
2022-09-26T22:26:59.445Z,78.30
2022-09-26T22:32:21.403Z,80.78
2022-09-26T22:37:43.215Z,83.04
2022-09-26T22:43:04.947Z,84.71
2022-09-26T22:48:30.113Z,86.85
2022-09-26T22:53:51.859Z,86.46
2022-09-26T22:59:13.779Z,88.19
2022-09-26T23:04:47.292Z,85.77
2022-09-26T23:10:10.371Z,88.30
2022-09-26T23:15:32.385Z,86.18
2022-09-26T23:20:54.069Z,88.99
2022-09-26T23:26:27.352Z,89.98
2022-09-26T23:31:50.779Z,90.32
2022-09-26T23:37:12.559Z,89.97
2022-09-26T23:42:34.236Z,88.87
2022-09-26T23:47:55.900Z,88.43
2022-09-26T23:53:17.772Z,90.38
2022-09-26T23:58:40.370Z,90.41
